Airfield :
LOGIN :

Register | Disclaimer

   EN    FR    IT 

 










Legend :    VFR   Marginal VFR   IFR   Intensive IFR   Very Intensive IFR
Visi :
Ceiling :
>= 8 km
>= 3000ft
5 to 8 km
1000 to 3000 ft
1500m to 5 km
500 to 1000 ft
800 to 1500m
200 to 500 ft
< 800m
< 200 ft
Symbols :   Thunderstorms  Fog  Heavy snow  Heavy precipitations  Wind > 20 kt
SIGMETs :     Misc.  Thunderstorms  Icing  Turbulence  Mountain Waves  Volcanic Ashes






- Airport Elevation : 776 ft
- IATA code : RMS


ETAR - Ramstein Air Base

CURRENT METAR :
  • 071656Z AUTO 26008KT 9999 FEW070 13/M02 A3006 RMK AO2 SLP186 T01311024 FZRANO $

EXPIRED METARs :
  • 071556Z AUTO 25004KT 9999 FEW070 13/M03 A3005 RMK AO2 SLP183 T01311028 FZRANO $
  • 071456Z AUTO 32009KT 9999 SCT065 13/M02 A3004 RMK AO2 SLP179 T01311016 52017 FZRANO $
  • 071406Z AUTO 29012G19KT 9999 FEW065 13/M02 A3003 RMK AO2 WSHFT 03 SLP176 FZRANO $

TAF TAF ETAR
Valid from the 07 at 10:00 until the 08 at 16:00 UTC


071000Z 0710/0816 27010G20KT 9999 BKN040 620402 510004 QNH2994INS
TEMPO 0710/0713 29012G25KT -SHRA BKN020
BECMG 0715/0716 VRB06KT 9999 FEW080 QNH3003INS
BECMG 0808/0809 19010G15KT 9999 FEW080 BKN100 QNH2994INS
TEMPO 0810/0816 19010G20KT 510004 TX12/0715Z TN02/0803Z



MET'MAP, your aeronautical weather chart ! - Copyright ORBIFLY December 2007 - Disclaimer

ORBIFLY MET'MAP TEAM :

Programming & Development : Alexandra Zaïnal
Concept & original design : Baudouin d'Aumeries
Assistance for programming : Marc-Olivier Méhu
Technical & hardware support : Manuel Goepfert

Contact : metmap@orbifly.com




SOURCES & CREDITS :

   NOAA